Fort Logan, Colorado
Current Conditions -  °F | °C
As of 1:53 PM on Friday 31 Oct 2014 (Local Time) from KAPA Reporting Station
Few Clouds Few Clouds  
Wind Chill: 56°   Ceiling: Unl
Heat Index: 56°   Visibility: 10mi
Dew Point: 29°   Wind: 13mph
Humidity: 36%   Direction: 140°SE
Pressure: 30.17"   Gusts: 18mph
Location:  39.6516°N, 105.039°W
Report Text: KAPA 311953Z 14011G16KT 10SM FEW150 FEW220 13/M02 A3017 RMK AO2 SLP194 T01331017
Loading
Personal Weather Stations






























Interactive Weather Map
Tropical Storm Tracking
New forecast layout! Learn more

10-Day Weather Forecast

Advertisements
Track Severe Weather on mobile